Time;durP1;ratioP1;P1;durP2;ratioP2;P2;SDS_P1;SDS_P2;PMS_P1;PMS_P2;Temp;Humidity;BMP_temperature;BMP_pressure;BME280_temperature;BME280_humidity;BME280_pressure;Samples;Min_cycle;Max_cycle;Signal;HPM_P1;HPM_P2
2021/01/21 00:02:07;;;;;;;1.97;1.50;;;7.20;51.80;;;7.21;46.15;96153.41;5084279;28;20053;-42
2021/01/21 00:04:35;;;;;;;2.00;1.40;;;7.20;51.60;;;7.22;46.27;96155.06;5084306;28;20060;-43
2021/01/21 00:07:03;;;;;;;2.83;1.50;;;7.10;51.60;;;7.22;46.55;96155.06;5083301;28;20059;-42
2021/01/21 00:09:30;;;;;;;2.87;1.67;;;7.20;51.60;;;7.24;46.28;96166.31;5084761;28;20048;-41
2021/01/21 00:11:58;;;;;;;2.47;1.70;;;7.20;51.70;;;7.25;46.15;96168.78;5084512;28;20044;-41
2021/01/21 00:14:26;;;;;;;4.23;1.90;;;7.20;51.70;;;7.25;46.43;96162.66;5083595;28;20048;-42
2021/01/21 00:16:54;;;;;;;3.50;1.50;;;7.10;51.70;;;7.26;45.92;96165.13;5084077;28;20055;-42
2021/01/21 00:19:22;;;;;;;2.07;1.50;;;7.20;51.70;;;7.26;46.30;96156.38;5084008;28;20045;-41
2021/01/21 00:21:49;;;;;;;2.13;1.70;;;7.20;51.70;;;7.26;46.51;96159.00;5084076;28;20274;-43
2021/01/21 00:24:16;;;;;;;2.77;1.73;;;7.10;51.80;;;7.26;46.60;96154.53;5084341;28;20090;-42
2021/01/21 00:26:44;;;;;;;2.37;1.40;;;7.10;51.70;;;7.26;46.02;96153.72;5083798;28;20235;-42
2021/01/21 00:29:11;;;;;;;2.70;1.30;;;7.10;51.80;;;7.25;46.72;96144.13;5084398;28;20052;-41
2021/01/21 00:31:38;;;;;;;2.50;1.30;;;7.10;51.80;;;7.25;46.02;96134.38;5083474;28;20051;-44
2021/01/21 00:34:06;;;;;;;2.63;1.60;;;7.10;51.60;;;7.26;45.86;96135.19;5083302;28;20047;-42
2021/01/21 00:36:33;;;;;;;3.70;1.73;;;7.20;51.30;;;7.26;45.84;96132.53;5082968;28;20048;-41
2021/01/21 00:39:00;;;;;;;2.17;1.47;;;7.20;52.10;;;7.26;45.57;96135.19;5084045;28;20052;-42
2021/01/21 00:41:28;;;;;;;1.90;1.23;;;7.20;50.90;;;7.26;45.44;96136.00;5084017;28;20046;-42
2021/01/21 00:43:55;;;;;;;2.13;1.40;;;7.20;51.20;;;7.28;46.25;96136.66;5083025;28;20354;-44
2021/01/21 00:46:22;;;;;;;1.77;0.90;;;7.20;51.00;;;7.28;45.46;96131.34;5083606;28;20048;-42
2021/01/21 00:48:50;;;;;;;2.10;1.40;;;7.20;51.10;;;7.29;46.21;96121.59;5083788;28;20044;-41
2021/01/21 00:51:19;;;;;;;1.60;1.10;;;7.20;51.30;;;7.30;45.91;96125.88;5065631;28;20059;-42
2021/01/21 00:53:51;;;;;;;1.80;1.30;;;7.20;51.10;;;7.28;45.85;96112.00;5066544;28;20048;-42
2021/01/21 00:56:19;;;;;;;2.23;1.40;;;7.20;51.30;;;7.30;46.01;96100.22;5065152;28;20045;-42
2021/01/21 00:58:50;;;;;;;2.17;1.57;;;7.20;51.30;;;7.30;45.54;96094.94;5081278;28;20074;-41
2021/01/21 01:01:18;;;;;;;3.13;1.47;;;7.20;51.40;;;7.32;45.45;96099.25;5063933;28;20062;-42
2021/01/21 01:03:47;;;;;;;2.60;1.33;;;7.20;51.30;;;7.33;45.97;96092.94;5065332;28;20044;-42
2021/01/21 01:06:15;;;;;;;7.43;3.33;;;7.30;51.50;;;7.34;46.05;96084.81;5064899;28;20055;-42
2021/01/21 01:08:44;;;;;;;4.23;2.00;;;7.30;51.40;;;7.35;44.88;96088.28;5065611;28;20048;-43
2021/01/21 01:11:11;;;;;;;8.33;3.33;;;7.30;50.90;;;7.36;45.77;96077.50;5065584;28;20349;-44
2021/01/21 01:13:40;;;;;;;9.70;5.20;;;7.30;51.10;;;7.38;45.86;96078.16;5063611;28;20194;-43
2021/01/21 01:16:11;;;;;;;7.27;2.93;;;7.30;51.00;;;7.40;45.25;96076.16;5063786;28;20049;-41
2021/01/21 01:18:46;;;;;;;3.90;2.20;;;7.40;50.90;;;7.41;45.21;96075.16;5049702;28;20051;-43
2021/01/21 01:21:15;;;;;;;9.20;4.30;;;7.40;50.50;;;7.42;45.34;96071.50;5083121;28;20056;-41
2021/01/21 01:23:42;;;;;;;3.90;2.50;;;7.40;50.40;;;7.43;45.37;96065.22;5082718;28;20052;-42
2021/01/21 01:26:10;;;;;;;7.07;3.73;;;7.40;50.30;;;7.46;44.59;96072.81;5064961;28;20056;-41
2021/01/21 01:28:41;;;;;;;6.07;2.77;;;7.40;49.80;;;7.46;44.06;96072.81;5048232;28;20053;-41
2021/01/21 01:31:10;;;;;;;6.77;3.17;;;7.50;49.40;;;7.48;44.47;96046.13;5064678;28;20056;-41
2021/01/21 01:33:40;;;;;;;5.50;2.80;;;7.50;49.90;;;7.50;44.90;96044.13;5064699;28;20040;-43
2021/01/21 01:36:08;;;;;;;6.80;3.17;;;7.50;49.60;;;7.54;44.89;96052.53;5064589;28;20052;-41
2021/01/21 01:38:35;;;;;;;8.57;3.90;;;7.60;49.80;;;7.54;44.39;96066.63;5081430;28;20052;-41
2021/01/21 01:41:26;;;;;;;4.47;2.27;;;7.60;49.70;;;7.54;43.95;96060.47;5082629;28;20066;-41
2021/01/21 01:43:54;;;;;;;7.60;3.93;;;7.60;49.30;;;7.55;44.36;96073.53;5082859;28;20048;-41
2021/01/21 01:46:26;;;;;;;4.00;2.30;;;7.60;49.40;;;7.55;44.84;96070.88;5082272;28;20055;-41
2021/01/21 01:48:59;;;;;;;7.30;3.03;;;7.60;48.90;;;7.58;44.62;96075.84;5064524;28;20056;-43
2021/01/21 01:51:32;;;;;;;5.13;3.53;;;7.60;49.40;;;7.57;44.45;96068.88;5049346;28;20078;-42
2021/01/21 01:54:00;;;;;;;5.63;2.30;;;7.60;49.30;;;7.59;44.30;96064.22;5064999;28;20044;-41
2021/01/21 01:56:35;;;;;;;5.50;3.07;;;7.60;49.60;;;7.60;44.46;96057.09;5063837;28;20045;-42
2021/01/21 01:59:11;;;;;;;3.63;2.43;;;7.60;49.80;;;7.62;44.84;96052.47;5082564;28;20040;-42
2021/01/21 02:01:50;;;;;;;3.20;1.70;;;7.60;49.70;;;7.63;44.10;96052.25;5049699;28;20064;-42
2021/01/21 02:04:22;;;;;;;3.97;2.43;;;7.60;49.70;;;7.63;44.33;96036.38;5064012;28;20049;-41
2021/01/21 02:07:11;;;;;;;3.57;1.73;;;7.60;49.60;;;7.62;44.26;96028.63;5050672;28;20243;-45
2021/01/21 02:09:53;;;;;;;2.23;1.83;;;7.60;49.60;;;7.60;44.71;96020.88;5064331;28;20044;-41
2021/01/21 02:12:25;;;;;;;3.63;1.93;;;7.60;49.90;;;7.63;44.82;96035.56;5063956;28;20040;-41
2021/01/21 02:15:19;;;;;;;4.03;1.45;;;7.60;49.90;;;7.61;43.80;96026.97;5064643;28;20055;-41
2021/01/21 02:18:11;;;;;;;1.10;1.00;;;7.60;48.80;;;7.61;44.09;96014.53;5048186;28;20363;-42
2021/01/21 02:21:16;;;;;;;2.30;1.20;;;7.60;49.00;;;7.62;44.44;96021.50;5073726;28;20269;-44
2021/01/21 02:24:08;;;;;;;2.78;1.15;;;7.60;49.10;;;7.64;44.61;96021.31;5083934;28;20048;-42
2021/01/21 02:26:54;;;;;;;2.10;1.37;;;7.60;49.90;;;7.63;44.07;96031.06;5083186;28;20348;-41
2021/01/21 02:29:29;;;;;;;2.80;1.30;;;7.60;49.00;;;7.60;43.90;96027.97;5083578;28;20050;-42
2021/01/21 02:32:05;;;;;;;2.73;1.30;;;7.60;49.20;;;7.62;43.73;96018.84;5084839;28;20340;-43
2021/01/21 02:35:08;;;;;;;2.73;1.30;;;7.60;49.80;;;7.63;43.76;96028.44;5083758;28;20052;-42
2021/01/21 02:37:42;;;;;;;3.90;1.50;;;7.70;48.80;;;7.63;44.42;96017.00;5083370;28;20214;-42
2021/01/21 02:40:14;;;;;;;2.00;1.23;;;7.70;49.20;;;7.65;44.65;96007.06;5067759;28;20060;-44
2021/01/21 02:43:14;;;;;;;2.47;1.30;;;7.70;49.00;;;7.65;43.44;96009.72;5079946;28;20362;-41
2021/01/21 02:45:46;;;;;;;1.10;0.83;;;7.70;49.20;;;7.66;44.16;96009.53;5083138;28;20314;-42
2021/01/21 02:48:13;;;;;;;2.10;1.33;;;7.70;49.50;;;7.71;44.76;95997.56;5083931;28;20048;-42
2021/01/21 02:51:03;;;;;;;2.10;1.10;;;7.70;49.70;;;7.72;43.78;95991.28;5069009;28;20351;-45
2021/01/21 02:53:37;;;;;;;2.00;1.10;;;7.80;48.80;;;7.73;44.55;95990.25;5083215;28;20232;-42
2021/01/21 02:56:09;;;;;;;2.30;1.20;;;7.80;49.50;;;7.75;43.97;95988.25;5083511;28;20052;-41
2021/01/21 02:58:54;;;;;;;1.93;1.07;;;7.80;49.10;;;7.77;44.12;95994.16;5083476;28;20348;-42
2021/01/21 03:01:23;;;;;;;4.33;1.40;;;7.80;48.70;;;7.76;43.64;95976.66;5084762;28;20050;-42
2021/01/21 03:03:58;;;;;;;;;;;7.80;49.30;;;7.76;44.28;95979.31;5061372;28;20055;-43
2021/01/21 03:06:28;;;;;;;3.20;1.30;;;7.80;48.20;;;7.78;44.43;95985.22;5082994;28;20112;-42
2021/01/21 03:08:59;;;;;;;1.70;1.30;;;7.80;49.30;;;7.77;44.31;95972.97;5083522;28;20244;-42
2021/01/21 03:11:29;;;;;;;3.00;1.33;;;7.80;49.30;;;7.73;43.88;95977.00;5067271;28;20052;-42
2021/01/21 03:14:01;;;;;;;2.33;1.20;;;7.80;49.20;;;7.73;43.87;95984.94;5100902;28;20343;-42
2021/01/21 03:16:33;;;;;;;1.53;1.17;;;7.80;49.30;;;7.75;43.92;95978.47;5083049;28;20243;-43
2021/01/21 03:19:01;;;;;;;3.30;1.33;;;7.80;49.40;;;7.76;44.00;95987.25;5102030;28;20047;-42
2021/01/21 03:21:28;;;;;;;1.70;1.10;;;7.80;49.20;;;7.76;43.34;95977.47;5101796;28;20043;-42
2021/01/21 03:24:01;;;;;;;3.10;1.30;;;7.80;49.20;;;7.79;44.46;95978.91;5083448;28;20263;-42
2021/01/21 03:26:36;;;;;;;1.63;1.10;;;7.80;49.20;;;7.80;44.32;95970.78;5067813;28;20052;-44
2021/01/21 03:29:16;;;;;;;1.67;0.90;;;7.80;49.60;;;7.81;43.77;95983.03;5083340;28;20263;-41
2021/01/21 03:31:43;;;;;;;1.50;1.30;;;7.80;49.10;;;7.79;43.95;95987.72;5083296;28;20056;-41
2021/01/21 03:34:13;;;;;;;0.93;0.73;;;7.80;48.80;;;7.79;43.35;95982.41;5083396;28;20206;-41
2021/01/21 03:36:48;;;;;;;1.97;1.17;;;7.80;49.00;;;7.79;44.16;95984.22;5083107;28;20044;-40
2021/01/21 03:39:16;;;;;;;2.83;1.23;;;7.80;49.30;;;7.81;44.04;95983.03;5066999;28;20044;-41
2021/01/21 03:41:48;;;;;;;2.50;1.00;;;7.80;49.30;;;7.81;44.42;95984.84;5101651;28;20054;-41
2021/01/21 03:44:35;;;;;;;2.30;1.30;;;7.80;49.30;;;7.81;44.47;95985.69;5100399;28;20044;-43
2021/01/21 03:47:03;;;;;;;2.97;1.40;;;7.80;49.30;;;7.80;44.50;95991.16;5100814;28;20058;-41
2021/01/21 03:49:53;;;;;;;2.13;1.20;;;7.80;49.30;;;7.81;43.75;95980.41;5083219;28;20060;-44
2021/01/21 03:52:23;;;;;;;2.97;1.47;;;7.80;49.50;;;7.84;43.99;95987.97;5082774;28;20051;-43
2021/01/21 03:55:02;;;;;;;2.97;1.80;;;7.80;49.80;;;7.85;43.63;95986.13;5082696;28;20243;-43
2021/01/21 03:57:30;;;;;;;1.90;1.30;;;7.90;49.50;;;7.83;43.80;95980.19;5083127;28;20052;-41
2021/01/21 04:00:14;;;;;;;1.50;1.07;;;7.80;49.50;;;7.85;44.49;95973.72;5082796;28;20050;-41
2021/01/21 04:02:44;;;;;;;1.77;1.27;;;7.90;49.70;;;7.85;44.23;95991.41;5082984;28;20048;-41
2021/01/21 04:05:20;;;;;;;1.10;0.87;;;7.90;49.50;;;7.83;44.29;95988.97;5082436;28;20056;-41
2021/01/21 04:07:48;;;;;;;1.57;0.80;;;7.90;48.90;;;7.85;44.13;95981.66;5082977;28;20058;-41
2021/01/21 04:10:15;;;;;;;2.43;1.23;;;7.80;49.70;;;7.87;44.60;95984.09;5104178;28;20058;-41
2021/01/21 04:12:53;;;;;;;2.17;1.30;;;7.80;50.40;;;7.87;44.19;95984.94;5071645;28;20048;-42
2021/01/21 04:15:20;;;;;;;2.27;1.87;;;7.90;49.80;;;7.88;44.26;95994.53;5102240;28;20048;-42
2021/01/21 04:17:48;;;;;;;1.13;1.00;;;7.80;49.70;;;7.89;44.18;95990.88;5103740;28;20040;-41
2021/01/21 04:20:16;;;;;;;1.73;1.00;;;7.90;50.10;;;7.89;44.74;95988.22;5086388;28;20040;-41
2021/01/21 04:22:45;;;;;;;1.30;1.10;;;7.80;49.10;;;7.87;43.89;95984.09;5085930;28;20048;-41
2021/01/21 04:25:13;;;;;;;1.73;1.27;;;7.80;49.70;;;7.88;44.09;96002.47;5085879;28;20050;-42
2021/01/21 04:27:48;;;;;;;2.20;1.10;;;7.80;49.60;;;7.89;43.76;95984.78;5086126;28;20231;-44
2021/01/21 04:30:19;;;;;;;2.97;1.50;;;7.90;49.70;;;7.88;43.77;95997.19;5086106;28;20044;-45
2021/01/21 04:32:46;;;;;;;2.03;1.33;;;7.90;49.30;;;7.88;44.03;95991.88;5086093;28;20048;-42
2021/01/21 04:35:18;;;;;;;2.77;1.23;;;7.90;49.00;;;7.87;43.62;95994.69;5085576;28;20048;-44
2021/01/21 04:37:49;;;;;;;2.07;1.10;;;7.90;48.90;;;7.89;43.88;95995.38;5085989;28;20052;-42
2021/01/21 04:40:26;;;;;;;2.03;1.17;;;7.90;48.30;;;7.92;43.56;96007.41;5085817;28;20048;-42
2021/01/21 04:43:13;;;;;;;2.20;1.37;;;8.00;48.80;;;7.94;42.87;96011.50;5089430;28;20077;-44
2021/01/21 04:45:41;;;;;;;3.10;1.13;;;8.00;48.40;;;7.95;43.02;96004.38;5103884;28;20062;-43
2021/01/21 04:48:09;;;;;;;2.43;1.20;;;8.00;48.10;;;7.94;43.39;96014.16;5085813;28;20055;-43
2021/01/21 04:50:59;;;;;;;2.77;0.97;;;8.00;48.10;;;7.94;43.23;95998.28;5072259;28;20067;-43
2021/01/21 04:53:43;;;;;;;2.87;1.10;;;7.90;48.10;;;7.94;43.31;95994.81;5070457;28;20048;-43
2021/01/21 04:56:34;;;;;;;1.97;1.10;;;8.00;47.90;;;7.94;42.31;96008.06;5084954;28;20054;-44
2021/01/21 04:59:22;;;;;;;1.97;0.87;;;8.00;46.80;;;7.94;43.25;96008.88;5090822;28;20358;-44
2021/01/21 05:01:54;;;;;;;3.60;1.00;;;7.90;47.20;;;7.92;42.64;96004.78;5069429;28;20044;-42
2021/01/21 05:04:23;;;;;;;1.63;1.00;;;7.90;47.60;;;7.90;42.01;96015.53;5086371;28;20050;-42
2021/01/21 05:06:54;;;;;;;1.83;1.00;;;8.00;47.00;;;7.91;42.22;96019.00;5068788;28;20052;-42
2021/01/21 05:09:24;;;;;;;2.03;1.03;;;8.00;47.30;;;7.92;42.54;96012.72;5085476;28;20274;-43
2021/01/21 05:11:55;;;;;;;3.10;1.47;;;7.90;47.00;;;7.88;41.29;96014.91;5069333;28;20248;-42
2021/01/21 05:14:29;;;;;;;1.83;1.00;;;8.00;45.40;;;7.91;41.34;96019.00;5109055;28;20039;-45
2021/01/21 05:17:06;;;;;;;2.80;1.70;;;8.00;45.60;;;7.94;41.69;96016.00;5107281;28;20054;-42
2021/01/21 05:19:52;;;;;;;1.60;1.20;;;8.00;45.90;;;7.96;41.48;96025.41;5105194;28;20351;-45
2021/01/21 05:23:01;;;;;;;2.17;1.10;;;8.10;45.60;;;7.99;42.12;96003.84;5072180;28;20052;-42
2021/01/21 05:25:48;;;;;;;2.70;1.30;;;8.10;46.40;;;8.02;42.15;96002.66;5102942;28;20262;-43
2021/01/21 05:28:50;;;;;;;5.40;2.40;;;8.10;46.40;;;8.03;42.20;95994.50;5069696;28;20052;-43
2021/01/21 05:31:41;;;;;;;4.80;2.83;;;8.10;46.60;;;8.07;41.94;95984.38;5109126;22;20062;-49
2021/01/21 05:34:17;;;;;;;9.70;5.50;;;8.20;46.30;;;8.07;41.24;95990.47;5085747;28;20059;-48
2021/01/21 05:37:12;;;;;;;4.57;2.70;;;8.20;45.10;;;8.11;41.05;95984.81;5081923;28;20057;-45
2021/01/21 05:40:02;;;;;;;11.50;7.87;;;8.20;45.20;;;8.14;41.51;95973.81;5082835;28;20243;-46
2021/01/21 05:42:50;;;;;;;4.10;2.67;;;8.30;45.70;;;8.19;41.63;95984.72;5070386;28;20047;-48
2021/01/21 05:45:33;;;;;;;3.87;2.77;;;8.30;46.00;;;8.24;41.34;95971.72;5066728;28;20044;-46
2021/01/21 05:48:10;;;;;;;3.73;1.57;;;8.40;45.90;;;8.26;41.65;95975.81;5082899;28;20051;-46
2021/01/21 05:50:38;;;;;;;7.17;3.73;;;8.40;45.60;;;8.29;41.34;95975.44;5081513;28;20052;-45
2021/01/21 05:53:08;;;;;;;9.60;5.53;;;8.50;46.00;;;8.33;41.31;95965.28;5082135;28;20049;-49
2021/01/21 05:55:41;;;;;;;10.60;8.70;;;8.50;46.10;;;8.37;41.31;95971.84;5063553;28;20344;-48
2021/01/21 05:58:10;;;;;;;5.53;3.70;;;8.50;46.00;;;8.37;41.50;95969.19;5064448;28;20060;-47
2021/01/21 06:00:44;;;;;;;10.67;6.13;;;8.50;45.30;;;8.41;41.26;95972.28;5078398;28;20074;-46
2021/01/21 06:03:27;;;;;;;4.90;2.97;;;8.60;45.60;;;8.43;41.79;95962.34;5064401;28;20283;-46
2021/01/21 06:06:10;;;;;;;6.20;3.00;;;8.50;46.00;;;8.46;41.49;95968.09;5081784;28;20056;-49
2021/01/21 06:08:42;;;;;;;2.87;1.80;;;8.60;45.70;;;8.46;41.28;95969.94;5082435;28;20051;-47
2021/01/21 06:11:20;;;;;;;6.17;3.97;;;8.60;45.80;;;8.47;41.67;95968.91;5082363;28;20048;-47
2021/01/21 06:13:48;;;;;;;7.57;3.50;;;8.60;46.20;;;8.46;41.68;95961.97;5082087;28;20260;-49
2021/01/21 06:16:17;;;;;;;7.47;5.00;;;8.60;46.50;;;8.50;41.93;95965.06;5064256;28;20049;-49
2021/01/21 06:18:45;;;;;;;4.67;3.10;;;8.60;46.20;;;8.48;41.75;95939.53;5047672;28;20239;-46
2021/01/21 06:21:36;;;;;;;4.53;2.20;;;8.60;46.00;;;8.50;41.79;95952.63;5081493;28;20059;-45
2021/01/21 06:24:16;;;;;;;2.13;1.70;;;8.60;46.50;;;8.54;42.00;95958.38;5082151;28;20227;-47
2021/01/21 06:26:59;;;;;;;5.67;3.30;;;8.60;47.00;;;8.52;41.72;95963.06;5079781;28;20070;-46
2021/01/21 06:29:28;;;;;;;4.93;2.23;;;8.60;46.30;;;8.52;42.05;95955.09;5080862;28;20052;-48
2021/01/21 06:32:02;;;;;;;3.77;1.70;;;8.60;46.90;;;8.53;41.83;95975.28;5080566;28;20229;-46
2021/01/21 06:34:39;;;;;;;5.40;3.17;;;8.60;46.70;;;8.54;41.98;95976.94;5080848;28;20048;-47
2021/01/21 06:37:15;;;;;;;3.10;1.80;;;8.60;46.70;;;8.52;41.99;95984.28;5065179;28;20046;-46
2021/01/21 06:39:56;;;;;;;3.53;3.00;;;8.60;46.80;;;8.54;42.11;95972.44;5081922;28;20040;-48
2021/01/21 06:42:35;;;;;;;3.20;2.47;;;8.60;47.00;;;8.56;42.19;95967.78;5081379;28;20243;-46
2021/01/21 06:45:07;;;;;;;4.27;1.90;;;8.70;47.40;;;8.55;42.42;95968.81;5081521;28;20062;-48
2021/01/21 06:47:35;;;;;;;5.17;3.57;;;8.60;47.40;;;8.56;42.85;95970.44;5081806;28;20059;-47
2021/01/21 06:50:06;;;;;;;2.40;1.90;;;8.60;47.90;;;8.57;42.50;95976.56;5081862;28;20044;-49
2021/01/21 06:52:37;;;;;;;4.00;3.40;;;8.60;47.70;;;8.56;42.71;95980.22;5063617;28;20057;-49
2021/01/21 06:55:09;;;;;;;3.67;2.13;;;8.60;47.70;;;8.56;42.71;95964.31;5063433;28;20052;-48
2021/01/21 06:57:37;;;;;;;3.23;1.97;;;8.60;47.80;;;8.56;42.91;95959.81;5081445;28;20376;-49
2021/01/21 07:00:38;;;;;;;2.17;1.23;;;8.60;48.20;;;8.56;43.01;95959.81;5081724;28;20052;-46
2021/01/21 07:03:06;;;;;;;3.93;1.70;;;8.60;48.10;;;8.53;42.96;95964.69;5081634;28;20046;-46
2021/01/21 07:05:33;;;;;;;2.17;1.30;;;8.60;48.40;;;8.52;42.95;95960.41;5063254;28;20056;-47
2021/01/21 07:08:04;;;;;;;3.00;1.53;;;8.50;48.80;;;8.51;43.06;95948.97;5083988;28;20048;-46
2021/01/21 07:10:44;;;;;;;2.33;1.57;;;8.50;48.80;;;8.51;43.24;95964.88;5084219;28;20052;-48
2021/01/21 07:13:20;;;;;;;3.17;1.67;;;8.50;48.90;;;8.50;43.51;95947.31;5084089;28;20171;-46
2021/01/21 07:16:04;;;;;;;5.27;1.60;;;8.50;49.30;;;8.51;43.59;95959.59;5082344;28;20064;-46
2021/01/21 07:18:37;;;;;;;1.93;1.33;;;8.50;49.40;;;8.50;43.66;95957.94;5100850;28;20074;-46
2021/01/21 07:21:07;;;;;;;2.50;1.73;;;8.50;49.50;;;8.48;43.77;95965.25;5101475;28;20253;-46
2021/01/21 07:23:37;;;;;;;2.83;1.60;;;8.50;49.60;;;8.45;44.05;95955.00;5101173;28;20047;-47
2021/01/21 07:26:33;;;;;;;2.67;1.60;;;8.40;49.90;;;8.39;44.55;95964.50;5100656;28;20094;-47
2021/01/21 07:29:09;;;;;;;3.73;1.77;;;8.40;50.60;;;8.43;44.34;95970.28;5101688;28;20043;-47
2021/01/21 07:31:52;;;;;;;2.10;1.80;;;8.40;51.40;;;8.40;44.99;95968.81;5101594;28;20389;-47
2021/01/21 07:34:42;;;;;;;1.20;0.90;;;8.40;51.20;;;8.41;45.21;95967.84;5099781;28;20070;-47
2021/01/21 07:37:45;;;;;;;2.77;1.37;;;8.40;51.50;;;8.43;45.65;95970.28;5100843;28;20050;-50
2021/01/21 07:40:12;;;;;;;1.90;1.30;;;8.50;52.20;;;8.42;46.00;95982.75;5101645;28;20348;-47
2021/01/21 07:42:49;;;;;;;5.10;1.40;;;8.50;52.20;;;8.44;46.44;95972.75;5101949;28;20036;-47
2021/01/21 07:45:19;;;;;;;1.57;1.00;;;8.50;53.00;;;8.46;46.81;95962.78;5105167;28;20056;-48
2021/01/21 07:47:50;;;;;;;4.97;1.40;;;8.50;53.90;;;8.50;46.51;95962.41;5105357;28;20048;-49
2021/01/21 07:50:29;;;;;;;2.90;1.33;;;8.50;53.30;;;8.52;47.14;95963.88;5105491;28;20251;-48
2021/01/21 07:53:26;;;;;;;1.60;0.93;;;8.60;54.10;;;8.55;48.80;95981.22;5104455;28;20055;-46
2021/01/21 07:56:02;;;;;;;1.50;0.80;;;8.70;55.40;;;8.60;47.55;95962.91;5104822;28;20054;-49
2021/01/21 07:58:34;;;;;;;2.17;1.10;;;8.70;54.90;;;8.62;48.64;95980.28;5104868;28;20051;-47
2021/01/21 08:01:10;;;;;;;2.13;1.10;;;8.70;55.50;;;8.67;48.40;95974.41;5103737;28;20062;-47
2021/01/21 08:03:40;;;;;;;1.03;0.87;;;8.80;55.90;;;8.66;49.47;95970.13;5104320;28;20054;-46
2021/01/21 08:06:22;;;;;;;0.63;0.60;;;8.80;56.70;;;8.71;49.72;95980.19;5086991;28;20058;-49
2021/01/21 08:08:52;;;;;;;1.13;0.90;;;8.80;56.80;;;8.74;49.29;95977.13;5086994;28;20061;-50
2021/01/21 08:11:23;;;;;;;3.10;1.00;;;8.90;56.60;;;8.76;49.30;95983.91;5104878;28;20068;-49
2021/01/21 08:13:57;;;;;;;1.17;0.80;;;8.90;56.30;;;8.79;50.29;95986.16;5103922;28;20318;-51
2021/01/21 08:16:25;;;;;;;2.03;0.90;;;9.00;57.20;;;8.81;49.70;95981.47;5103998;28;20040;-52
2021/01/21 08:19:01;;;;;;;1.00;0.77;;;9.00;57.10;;;8.86;50.50;95980.94;5104371;28;20052;-45
2021/01/21 08:21:29;;;;;;;2.03;0.70;;;9.00;57.60;;;8.89;50.46;95972.56;5104791;28;20044;-47
2021/01/21 08:24:00;;;;;;;0.80;0.47;;;9.10;57.60;;;8.95;50.57;95985.06;5104731;28;20109;-51
2021/01/21 08:26:32;;;;;;;1.00;0.70;;;9.20;57.00;;;9.01;50.58;95989.59;5104345;28;20052;-49
2021/01/21 08:29:01;;;;;;;1.25;0.80;;;9.30;57.50;;;9.06;50.21;95989.03;5104197;28;20044;-46
2021/01/21 08:31:42;;;;;;;0.90;0.70;;;9.40;56.90;;;9.13;50.42;96000.53;5104515;28;20040;-46
2021/01/21 08:34:24;;;;;;;2.20;1.10;;;9.50;57.00;;;9.20;50.15;96004.06;5104089;28;20218;-48
2021/01/21 08:37:03;;;;;;;6.83;3.60;;;9.50;56.80;;;9.24;50.42;96002.66;5102470;28;20051;-47
2021/01/21 08:39:31;;;;;;;3.43;1.13;;;9.60;57.10;;;9.34;49.98;96004.16;5086226;28;20044;-47
2021/01/21 08:41:58;;;;;;;1.23;0.80;;;9.70;56.50;;;9.38;50.10;96002.75;5086257;28;20059;-49
2021/01/21 08:44:26;;;;;;;1.90;0.83;;;9.70;56.40;;;9.40;50.08;95998.06;5086025;28;20056;-51
2021/01/21 08:46:59;;;;;;;1.67;0.90;;;9.70;56.40;;;9.46;49.99;95999.97;5085229;28;20048;-47
2021/01/21 08:49:34;;;;;;;0.98;0.70;;;9.80;56.60;;;9.48;50.11;95997.09;5104229;28;20251;-47
2021/01/21 08:52:07;;;;;;;1.03;0.73;;;9.80;56.70;;;9.43;50.70;96009.13;5098578;28;20064;-47
2021/01/21 08:54:34;;;;;;;0.70;0.70;;;9.80;57.10;;;9.48;50.30;95987.31;5078779;28;20057;-46
2021/01/21 08:57:20;;;;;;;1.13;0.80;;;9.80;57.10;;;9.51;50.79;95996.72;5079392;28;20083;-48
2021/01/21 08:59:47;;;;;;;1.27;0.80;;;9.70;57.50;;;9.52;50.50;95996.53;5084825;28;20044;-50
2021/01/21 09:02:34;;;;;;;1.03;0.70;;;9.80;57.20;;;9.56;50.46;95986.34;5101604;28;20040;-49
2021/01/21 09:05:06;;;;;;;0.80;0.70;;;9.80;57.10;;;9.56;50.74;95994.31;5099686;28;20048;-49
2021/01/21 09:07:33;;;;;;;0.67;0.60;;;9.80;57.50;;;9.57;50.83;95985.31;5103150;28;20054;-49
2021/01/21 09:10:12;;;;;;;1.17;0.57;;;9.80;57.50;;;9.62;50.97;95994.34;5103356;28;20052;-48
2021/01/21 09:12:39;;;;;;;3.30;0.80;;;9.90;58.00;;;9.61;50.96;95998.00;5101461;28;20052;-48
2021/01/21 09:15:09;;;;;;;1.43;1.17;;;9.80;57.50;;;9.61;50.77;95994.53;5083825;28;20044;-51
2021/01/21 09:17:39;;;;;;;0.90;0.70;;;9.80;57.80;;;9.62;50.83;96002.31;5103014;28;20048;-49
2021/01/21 09:20:21;;;;;;;0.80;0.60;;;9.80;57.70;;;9.63;51.13;95988.03;5103841;28;20358;-46
2021/01/21 09:23:20;;;;;;;0.73;0.60;;;9.80;58.30;;;9.62;51.18;95990.88;5103644;28;20035;-49
2021/01/21 09:25:48;;;;;;;0.93;0.80;;;9.80;58.30;;;9.60;51.18;95979.63;5085682;28;20050;-47
2021/01/21 09:28:16;;;;;;;0.93;0.80;;;9.70;58.60;;;9.60;51.13;95980.44;5085244;28;20052;-49
2021/01/21 09:30:44;;;;;;;1.37;0.70;;;9.80;58.10;;;9.62;50.99;95985.56;5103426;28;20052;-47
2021/01/21 09:33:12;;;;;;;0.80;0.80;;;9.80;58.10;;;9.64;51.37;95980.84;5102240;28;20043;-47
2021/01/21 09:35:42;;;;;;;1.83;0.90;;;9.80;58.60;;;9.65;51.36;95988.66;5102827;28;20056;-49
2021/01/21 09:38:10;;;;;;;3.87;1.70;;;9.80;58.40;;;9.66;51.35;95992.13;5098239;28;20054;-49
2021/01/21 09:40:38;;;;;;;4.27;2.23;;;9.80;58.60;;;9.68;51.64;95991.91;5099519;28;20055;-47
2021/01/21 09:43:05;;;;;;;1.07;0.93;;;9.80;58.80;;;9.71;51.46;96013.59;5102038;28;20134;-48
2021/01/21 09:45:33;;;;;;;0.97;0.80;;;9.80;58.70;;;9.72;51.66;96015.25;5082475;28;20056;-49
2021/01/21 09:48:02;;;;;;;1.43;0.80;;;9.90;58.60;;;9.78;51.76;96016.28;5102995;28;20044;-49
2021/01/21 09:50:30;;;;;;;1.17;0.70;;;10.00;58.60;;;9.82;51.77;96028.19;5103098;28;20050;-47
2021/01/21 09:52:57;;;;;;;1.43;0.83;;;10.10;58.50;;;9.88;51.64;96022.06;5103018;28;20056;-48
2021/01/21 09:55:25;;;;;;;2.33;1.50;;;10.20;58.50;;;9.94;51.69;96012.50;5102277;28;20048;-46
2021/01/21 09:57:53;;;;;;;2.07;1.20;;;10.20;58.30;;;10.04;51.53;96015.59;5101846;28;20044;-47
2021/01/21 10:00:20;;;;;;;1.80;0.80;;;10.40;58.40;;;10.12;51.66;96017.28;5101405;28;20056;-46
2021/01/21 10:02:48;;;;;;;1.27;0.80;;;10.50;58.20;;;10.17;52.00;96020.97;5101573;28;20297;-47
2021/01/21 10:05:15;;;;;;;1.27;0.97;;;10.60;58.40;;;10.27;51.68;96022.44;5102026;28;20050;-48
2021/01/21 10:07:43;;;;;;;1.47;0.70;;;10.70;58.20;;;10.33;51.59;96022.53;5102021;28;20046;-46
2021/01/21 10:10:10;;;;;;;0.60;0.60;;;10.70;58.10;;;10.42;51.37;96025.81;5102039;28;20462;-48
2021/01/21 10:12:38;;;;;;;0.93;0.77;;;10.90;57.90;;;10.51;51.79;96015.84;5100352;28;20062;-49
2021/01/21 10:15:06;;;;;;;2.13;0.75;;;11.00;58.00;;;10.57;51.33;96012.38;5101834;28;20227;-46
2021/01/21 10:17:34;;;;;;;0.70;0.70;;;11.00;57.70;;;10.67;51.31;96023.44;5100518;28;20036;-48
2021/01/21 10:20:02;;;;;;;3.47;0.80;;;11.10;57.80;;;10.77;51.58;96021.19;5101466;28;20052;-48
2021/01/21 10:22:30;;;;;;;0.70;0.70;;;11.30;57.80;;;10.83;51.15;96014.25;5093581;28;20036;-46
2021/01/21 10:24:57;;;;;;;0.33;0.33;;;11.40;57.40;;;10.93;51.06;96021.84;5098579;28;20083;-49
2021/01/21 10:27:27;;;;;;;0.73;0.60;;;11.40;57.40;;;11.00;51.49;96035.97;5073227;28;20048;-47
2021/01/21 10:29:55;;;;;;;1.00;0.80;;;11.50;57.70;;;11.07;51.21;96028.84;5096158;28;20052;-46
2021/01/21 10:32:38;;;;;;;1.02;0.63;;;11.50;57.50;;;11.12;51.01;96055.66;5098646;28;20048;-46
2021/01/21 10:35:06;;;;;;;0.40;0.40;;;11.60;57.20;;;11.11;51.57;96038.06;5097779;28;20036;-47
2021/01/21 10:37:34;;;;;;;1.35;0.85;;;11.70;57.80;;;11.22;51.65;96049.94;5095634;28;20044;-46
2021/01/21 10:40:02;;;;;;;1.07;0.63;;;11.70;58.40;;;11.26;51.71;96047.69;5099413;28;20046;-50
2021/01/21 10:42:29;;;;;;;0.93;0.70;;;11.80;58.10;;;11.35;51.65;96049.13;5098390;28;20036;-46
2021/01/21 10:44:57;;;;;;;0.75;0.65;;;11.90;58.10;;;11.41;51.82;96057.09;5097466;28;20044;-49
2021/01/21 10:47:25;;;;;;;1.08;0.60;;;11.90;58.00;;;11.46;51.50;96053.84;5097949;28;20339;-47
2021/01/21 10:49:52;;;;;;;0.85;0.60;;;11.90;57.50;;;11.47;50.74;96046.66;5059835;22;20064;-75
2021/01/21 10:52:19;;;;;;;1.30;0.60;;;12.00;57.20;;;11.50;50.95;96052.41;5006214;28;20041;-75
2021/01/21 10:57:57;;;;;;;2.05;0.50;;;12.00;57.20;;;11.49;50.96;96052.59;5293179;22;20339;-39
2021/01/21 11:00:25;;;;;;;0.50;0.50;;;12.00;57.50;;;11.54;51.36;96072.28;5007433;23;20050;-39
2021/01/21 11:02:52;;;;;;;0.65;0.63;;;12.00;57.40;;;11.54;51.12;96069.63;4996998;28;20054;-39
2021/01/21 11:05:20;;;;;;;0.70;0.70;;;12.00;57.50;;;11.57;51.28;96063.88;4995430;28;20064;-39